Mijn Webcam Meer informatie Mijn Webcam


webcam facing north-east Meer informatie webcam facing north-east


Regen radar Meer informatie rain snow radar


Bezoek onze andere website:

Template documentation
and downloads

And another site


CBI



METAR rapporten vliegvelden

   
EHGG - Groningen/Eelde
Gewijzigd: 24-06-2017 10:25
Grotendeels bewolkt  
Grotendeels bewolkt  
   Wind: WZW 6,2 m/s
Wind: WZW 6,2 m/s
Temperatuur: 18°C
Dauwpunt: 17°C
Vochtigheid: 94%
Barometer: 1011 hPa
Bewolking: Grotendeels bewolkt
Zicht: More then 10 km
Bewolking: Licht bewolkt 274,3 m,
Grotendeels bewolkt 335,3 m,
Grotendeels bewolkt 396,2 m
EHGG 240825Z AUTO 24012KT 220V290 9999 FEW009 BKN011 BKN013 18/17 Q1011 TEMPO 4000 -RADZ BKN008
EHMA - Schiermonnikoog
Gewijzigd: 24-06-2017 10:25
Grotendeels bewolkt  
Grotendeels bewolkt  
   Wind: Westen 9,8 m/s
Wind: Westen 9,8 m/s
Temperatuur: 17°C
Dauwpunt: 14°C
Vochtigheid: 83%
Barometer: 1010 hPa
Bewolking: Grotendeels bewolkt
Zicht: More then 10 km
Bewolking: Licht bewolkt 335,3 m,
Gedeeltelijk bewolkt 396,2 m,
Grotendeels bewolkt 487,7 m
EHMA 240825Z AUTO 26019KT 9999 FEW011 SCT013 BKN016 17/14 Q1010
EHMG - Terschelling
Gewijzigd: 24-06-2017 10:25
Grotendeels bewolkt  
Grotendeels bewolkt  
   Wind: WZW 13,9 m/s
Wind: WZW 13,9 m/s
Temperatuur: 16°C
Dauwpunt: 14°C
Vochtigheid: 88%
Barometer: 1009 hPa
Bewolking: Grotendeels bewolkt
Zicht: More then 10 km
Bewolking: Licht bewolkt 182,9 m,
Gedeeltelijk bewolkt 304,8 m,
Grotendeels bewolkt 396,2 m
EHMG 240825Z AUTO 25027KT 9999 FEW006 SCT010 BKN013 16/14 Q1009
EHVL - Vlieland
Gewijzigd: 24-06-2017 10:41
Bewolking  
Bewolking  
   Wind: WZW 11,3 m/s
Wind: WZW 11,3 m/s
Temperatuur: 17°C
Dauwpunt: 15°C
Vochtigheid: 88%
Barometer: 1010 hPa
Bewolking: Bewolking
Zicht: More then 10 km
Bewolking: Gedeeltelijk bewolkt 396,2 m,
Grotendeels bewolkt 457,2 m,
Bewolking 579,1 m
EHVL 240841Z AUTO 25022KT 9999 SCT013 BKN015 OVC019 17/15 Q1010 GRN
ETWM - Meppen, Germany
Gewijzigd: 24-06-2017 10:20
  
  
   Wind: ZZW 2,6 m/s
Wind: ZZW 2,6 m/s
Temperatuur: 17°C
Dauwpunt: 13°C
Vochtigheid: 77%
Barometer: 1012 hPa
Zicht: More then 10 km
ETWM 240820Z AUTO 21005KT 9999 // ////// 17/13 Q1012 ///
 

Script ontwikkeld door  Saratoga-weather.org Aangepast voor de template door  Weerstation Leuven

U vindt ons ook hier:

Het Weer Aktueel

UK Metoffice

European Weather Network

WeatherCloud

Weather Underground

Benelux Weer Netwerk

AWEKAS

WeatherlinkIP

HAMweather, WeatherForYou, PWS Weather

Apparatuur in gebruik:

Weerstation
Davis VP2 Plus

Weerprogramma
Cumulus

Weercomputer
ASUS Eee Box B202

Webleverancier
Antagonist

Davis VP2 Plus

Cumulus

ASUS Eee Box B202

Antagonist